KWJF/WJF METAR and TAF weather

Enter ICAO airport designator
Station Type Date Time Source
KWJF METAR 2021/07/24 19:56 UTC NOAA

KWJF 241956Z 22017G22KT 10SM CLR 35/M02 A3000 RMK AO2 SLP134 T03501017 $


Station Type Date Time Source
KWJF Decoded METAR 2021/07/24 19:56 UTC NOAA

LANCASTER FOX AIRFIELD, CA, United States (KWJF) 34-44N 118-13W
Jul 24, 2021 - 03:56 PM EDT / 2021.07.24 1956 UTC
Wind: from the SW (220 degrees) at 20 MPH (17 KT) gusting to 25 MPH (22 KT):0
Visibility: 10 mile(s):0
Sky conditions: clear
Temperature: 95.0 F (35.0 C)
Dew Point: 28.9 F (-1.7 C)
Relative Humidity: 9%
Pressure (altimeter): 30 in. Hg (1015 hPa)
ob: KWJF 241956Z 22017G22KT 10SM CLR 35/M02 A3000 RMK AO2 SLP134 T03501017
cycle: 20

Station Type Date Time Source
KWJF TAF 2021/07/24 18:42 UTC NOAA

TAF KWJF 241739Z 2418/2518 23010KT P6SM BKN150
FM242000 24015G25KT P6SM BKN150
FM250300 24015KT P6SM BKN150
FM250700 24008KT P6SM BKN150

Example: see airport list